createdAt,value
2019-02-06T00:01:57.965Z,100.00
2019-02-06T00:04:45.878Z,99.00
2019-02-06T00:07:14.939Z,100.00
2019-02-06T00:09:47.689Z,100.00
2019-02-06T00:12:19.567Z,100.00
2019-02-06T00:14:56.175Z,100.00
2019-02-06T00:17:25.259Z,100.00
2019-02-06T00:20:07.797Z,100.00
2019-02-06T00:25:17.471Z,100.00
2019-02-06T00:27:46.569Z,100.00
2019-02-06T00:30:15.619Z,100.00
2019-02-06T00:32:45.256Z,100.00
2019-02-06T00:35:25.621Z,98.26
2019-02-06T00:40:24.982Z,100.00
2019-02-06T00:43:08.399Z,100.00
2019-02-06T00:45:40.191Z,100.00
2019-02-06T00:48:09.301Z,100.00
2019-02-06T00:50:52.919Z,100.00
2019-02-06T00:53:21.992Z,100.00
2019-02-06T00:56:04.186Z,100.00
2019-02-06T00:58:37.408Z,100.00
2019-02-06T01:03:53.333Z,100.00
2019-02-06T01:06:22.391Z,99.83
2019-02-06T01:08:53.397Z,99.94
2019-02-06T01:11:22.898Z,99.72
2019-02-06T01:13:52.018Z,99.16
2019-02-06T01:16:21.081Z,99.23
2019-02-06T01:21:26.298Z,100.00
2019-02-06T01:24:07.558Z,100.00
2019-02-06T01:29:16.289Z,100.00
2019-02-06T01:31:58.455Z,100.00
2019-02-06T01:34:27.539Z,98.31
2019-02-06T01:37:05.080Z,98.58
2019-02-06T01:39:34.159Z,99.52
2019-02-06T01:42:03.218Z,99.45
2019-02-06T01:44:36.236Z,100.00
2019-02-06T01:47:07.259Z,99.61
2019-02-06T01:52:13.346Z,100.00
2019-02-06T01:54:43.383Z,100.00
2019-02-06T01:57:13.937Z,100.00
2019-02-06T01:59:57.319Z,100.00
2019-02-06T02:05:12.192Z,100.00
2019-02-06T02:07:41.269Z,100.00
2019-02-06T02:13:07.761Z,100.00
2019-02-06T02:15:36.835Z,100.00
2019-02-06T02:20:42.209Z,100.00
2019-02-06T02:23:14.994Z,100.00
2019-02-06T02:25:44.084Z,98.71
2019-02-06T02:28:15.085Z,99.94
2019-02-06T02:30:44.139Z,100.00
2019-02-06T02:33:13.209Z,100.00
2019-02-06T02:35:42.638Z,100.00
2019-02-06T02:38:29.058Z,100.00
2019-02-06T02:44:04.362Z,100.00
2019-02-06T02:46:33.437Z,100.00
2019-02-06T02:49:10.785Z,100.00
2019-02-06T02:51:39.887Z,100.00
2019-02-06T02:56:45.667Z,100.00
2019-02-06T02:59:28.393Z,100.00
2019-02-06T03:02:02.530Z,100.00
2019-02-06T03:04:31.663Z,100.00
2019-02-06T03:07:04.325Z,100.00
2019-02-06T03:09:33.383Z,100.00
2019-02-06T03:16:43.219Z,99.00
2019-02-06T03:19:12.315Z,99.87
2019-02-06T03:21:41.899Z,100.00
2019-02-06T03:24:11.011Z,100.00
2019-02-06T03:26:40.106Z,100.00
2019-02-06T03:29:09.183Z,100.00
2019-02-06T03:31:38.265Z,100.00
2019-02-06T03:34:15.260Z,100.00
2019-02-06T03:36:45.297Z,100.00
2019-02-06T03:39:15.312Z,100.00
2019-02-06T03:41:45.017Z,100.00
2019-02-06T03:44:26.135Z,98.97
2019-02-06T03:46:55.784Z,100.00
2019-02-06T03:52:05.719Z,100.00
2019-02-06T03:54:43.804Z,100.00
2019-02-06T04:00:00.871Z,98.79
2019-02-06T04:02:31.884Z,97.34
2019-02-06T04:05:02.885Z,100.00
2019-02-06T04:07:32.711Z,100.00
2019-02-06T04:10:01.831Z,100.00
2019-02-06T04:15:23.071Z,100.00
2019-02-06T04:17:54.506Z,100.00
2019-02-06T04:20:32.972Z,100.00
2019-02-06T04:23:13.066Z,100.00
2019-02-06T04:25:48.190Z,100.00
2019-02-06T04:28:17.992Z,100.00
2019-02-06T04:33:26.913Z,100.00
2019-02-06T04:35:58.027Z,100.00
2019-02-06T04:38:27.229Z,100.00
2019-02-06T04:41:19.086Z,100.00
2019-02-06T04:43:50.484Z,100.00
2019-02-06T04:46:20.139Z,100.00
2019-02-06T04:48:52.702Z,100.00
2019-02-06T04:51:21.878Z,99.52
2019-02-06T04:53:57.494Z,99.26
2019-02-06T04:56:26.655Z,100.00
2019-02-06T04:58:56.250Z,100.00
2019-02-06T05:01:25.789Z,100.00
2019-02-06T05:04:16.944Z,98.68
2019-02-06T05:06:46.971Z,98.04
2019-02-06T05:09:16.985Z,99.79
2019-02-06T05:11:46.446Z,99.49
2019-02-06T05:14:15.533Z,100.00
2019-02-06T05:16:44.590Z,100.00
2019-02-06T05:21:55.322Z,98.17
2019-02-06T05:24:40.084Z,100.00
2019-02-06T05:27:10.226Z,100.00
2019-02-06T05:32:43.005Z,100.00
2019-02-06T05:37:52.359Z,100.00
2019-02-06T05:40:29.105Z,100.00
2019-02-06T05:42:58.169Z,100.00
2019-02-06T05:45:40.823Z,100.00
2019-02-06T05:48:24.695Z,100.00
2019-02-06T05:50:54.389Z,100.00
2019-02-06T05:58:44.199Z,100.00
2019-02-06T06:01:41.608Z,100.00
2019-02-06T06:07:44.145Z,100.00
2019-02-06T06:13:35.628Z,100.00
2019-02-06T06:16:08.071Z,100.00
2019-02-06T06:21:22.008Z,100.00
2019-02-06T06:23:52.019Z,100.00
2019-02-06T06:26:28.960Z,100.00
2019-02-06T06:28:58.012Z,100.00
2019-02-06T06:31:41.437Z,100.00
2019-02-06T06:34:13.523Z,100.00
2019-02-06T06:36:42.998Z,100.00
2019-02-06T06:41:47.795Z,100.00
2019-02-06T06:44:16.896Z,100.00
2019-02-06T06:46:45.943Z,100.00
2019-02-06T06:49:15.425Z,100.00
2019-02-06T06:51:44.527Z,100.00
2019-02-06T06:54:15.580Z,100.00
2019-02-06T06:56:45.106Z,100.00
2019-02-06T06:59:14.203Z,100.00
2019-02-06T07:01:43.287Z,100.00
2019-02-06T07:06:52.061Z,99.47
2019-02-06T07:09:23.740Z,99.31
2019-02-06T07:11:52.839Z,98.81
2019-02-06T07:14:23.827Z,97.12
2019-02-06T07:16:52.889Z,95.39
2019-02-06T07:19:22.871Z,93.32
2019-02-06T07:21:52.574Z,93.01
2019-02-06T07:24:35.366Z,92.57
2019-02-06T07:27:04.447Z,90.69
2019-02-06T07:29:33.894Z,91.42
2019-02-06T07:32:06.418Z,91.80
2019-02-06T07:34:35.479Z,90.50
2019-02-06T07:37:19.271Z,91.08
2019-02-06T07:39:51.529Z,91.53
2019-02-06T07:42:21.300Z,91.73
2019-02-06T07:44:50.375Z,90.71
2019-02-06T07:47:19.435Z,94.45
2019-02-06T07:49:48.499Z,94.71
2019-02-06T07:54:55.850Z,91.38
2019-02-06T07:57:26.738Z,87.69
2019-02-06T07:59:55.803Z,88.48
2019-02-06T08:02:24.880Z,88.92
2019-02-06T08:04:53.965Z,90.09
2019-02-06T08:10:00.279Z,88.12
2019-02-06T08:12:31.310Z,86.83
2019-02-06T08:15:00.967Z,85.02
2019-02-06T08:17:30.139Z,82.77
2019-02-06T08:19:59.235Z,83.27
2019-02-06T08:22:29.236Z,81.77
2019-02-06T08:24:58.315Z,82.53
2019-02-06T08:27:28.930Z,82.00
2019-02-06T08:29:58.041Z,80.95
2019-02-06T08:32:38.981Z,80.40
2019-02-06T08:35:08.060Z,81.47
2019-02-06T08:37:37.126Z,80.87
2019-02-06T08:40:07.775Z,78.82
2019-02-06T08:42:36.868Z,79.87
2019-02-06T08:45:15.273Z,78.76
2019-02-06T08:47:44.579Z,78.00
2019-02-06T08:50:18.229Z,76.79
2019-02-06T08:52:47.997Z,76.42
2019-02-06T08:55:31.722Z,76.07
2019-02-06T08:58:00.866Z,75.08
2019-02-06T09:00:31.682Z,73.80
2019-02-06T09:03:00.790Z,73.05
2019-02-06T09:10:49.883Z,68.60
2019-02-06T09:13:32.259Z,68.13
2019-02-06T09:16:01.372Z,64.49
2019-02-06T09:18:39.759Z,64.92
2019-02-06T09:21:08.803Z,60.50
2019-02-06T09:23:38.813Z,60.49
2019-02-06T09:26:08.542Z,55.59
2019-02-06T09:28:37.603Z,55.93
2019-02-06T09:31:06.646Z,51.01
2019-02-06T09:33:36.614Z,48.49
2019-02-06T09:36:05.690Z,48.12
2019-02-06T09:38:35.461Z,49.24
2019-02-06T09:41:08.032Z,49.29
2019-02-06T09:43:39.075Z,45.89
2019-02-06T09:48:43.834Z,49.84
2019-02-06T09:51:19.269Z,48.57
2019-02-06T09:58:58.601Z,47.10
2019-02-06T10:04:03.498Z,45.29
2019-02-06T10:09:08.477Z,42.92
2019-02-06T10:11:42.384Z,43.51
2019-02-06T10:19:23.326Z,40.00
2019-02-06T10:21:53.725Z,38.76
2019-02-06T10:24:24.512Z,36.66
2019-02-06T10:26:53.659Z,36.54
2019-02-06T10:29:22.730Z,38.27
2019-02-06T10:31:51.881Z,34.82
2019-02-06T10:34:21.959Z,36.23
2019-02-06T10:36:51.012Z,35.69
2019-02-06T10:39:21.070Z,34.23
2019-02-06T10:44:25.801Z,34.57
2019-02-06T10:49:30.575Z,35.08
2019-02-06T10:51:59.630Z,33.82
2019-02-06T10:54:28.692Z,32.27
2019-02-06T10:57:00.823Z,32.96
2019-02-06T10:59:37.676Z,31.17
2019-02-06T11:02:06.922Z,30.98
2019-02-06T11:04:35.911Z,32.84
2019-02-06T11:07:08.085Z,31.92
2019-02-06T11:12:13.123Z,31.99
2019-02-06T11:14:42.167Z,30.74
2019-02-06T11:17:11.901Z,29.46
2019-02-06T11:19:43.049Z,31.79
2019-02-06T11:22:10.166Z,31.35
2019-02-06T11:24:39.241Z,30.47
2019-02-06T11:27:08.298Z,30.35
2019-02-06T11:29:37.900Z,30.09
2019-02-06T11:32:07.127Z,30.49
2019-02-06T11:34:38.100Z,30.82
2019-02-06T11:37:07.164Z,32.23
2019-02-06T11:39:37.119Z,32.48
2019-02-06T11:42:12.162Z,30.74
2019-02-06T11:44:41.537Z,29.43
2019-02-06T11:47:10.595Z,27.65
2019-02-06T11:52:16.446Z,29.72
2019-02-06T11:57:20.721Z,30.87
2019-02-06T11:59:53.158Z,32.05
2019-02-06T12:02:37.061Z,31.08
2019-02-06T12:04:59.947Z,30.87
2019-02-06T12:07:29.027Z,29.63
2019-02-06T12:10:09.297Z,29.63
2019-02-06T12:12:30.604Z,31.64
2019-02-06T12:15:01.286Z,30.85
2019-02-06T12:17:30.432Z,33.51
2019-02-06T12:20:07.633Z,33.78
2019-02-06T12:22:36.671Z,34.48
2019-02-06T12:25:06.663Z,32.70
2019-02-06T12:27:37.288Z,33.89
2019-02-06T12:30:15.875Z,35.46
2019-02-06T12:32:52.255Z,38.60
2019-02-06T12:35:15.651Z,37.28
2019-02-06T12:37:44.839Z,36.46
2019-02-06T12:40:21.026Z,36.83
2019-02-06T12:42:50.119Z,36.89
2019-02-06T12:48:00.223Z,37.41
2019-02-06T12:50:29.335Z,41.28
2019-02-06T12:55:37.248Z,37.75
2019-02-06T12:58:08.251Z,38.79
2019-02-06T13:00:42.305Z,38.90
2019-02-06T13:03:15.332Z,41.54
2019-02-06T13:05:44.480Z,38.53
2019-02-06T13:08:22.659Z,42.63
2019-02-06T13:10:51.761Z,39.71
2019-02-06T13:13:22.523Z,39.58
2019-02-06T13:15:51.633Z,40.28
2019-02-06T13:18:20.710Z,37.29
2019-02-06T13:20:51.408Z,35.10
2019-02-06T13:25:55.387Z,33.96
2019-02-06T13:28:24.428Z,33.09
2019-02-06T13:30:53.517Z,34.57
2019-02-06T13:33:23.009Z,32.60
2019-02-06T13:35:57.865Z,34.60
2019-02-06T13:38:27.084Z,39.42
2019-02-06T13:40:56.223Z,40.57
2019-02-06T13:43:27.258Z,38.76
2019-02-06T13:45:56.950Z,44.65
2019-02-06T13:51:02.377Z,44.96
2019-02-06T13:53:32.963Z,50.74
2019-02-06T13:56:05.638Z,50.05
2019-02-06T13:58:34.690Z,48.41
2019-02-06T14:01:03.747Z,52.48
2019-02-06T14:03:32.804Z,52.96
2019-02-06T14:08:45.063Z,53.04
2019-02-06T14:11:14.119Z,52.65
2019-02-06T14:13:43.168Z,54.14
2019-02-06T14:16:12.256Z,57.35
2019-02-06T14:18:42.469Z,59.58
2019-02-06T14:21:11.541Z,60.94
2019-02-06T14:23:48.549Z,57.43
2019-02-06T14:26:16.738Z,57.95
2019-02-06T14:29:16.274Z,66.93
2019-02-06T14:31:53.777Z,65.24
2019-02-06T14:43:32.343Z,67.37
2019-02-06T14:46:17.032Z,70.88
2019-02-06T14:49:07.030Z,67.34
2019-02-06T14:54:19.801Z,67.54
2019-02-06T15:00:11.784Z,79.87
2019-02-06T15:03:17.676Z,72.46
2019-02-06T15:05:59.296Z,78.78
2019-02-06T15:08:49.627Z,79.21
2019-02-06T15:14:22.684Z,73.81
2019-02-06T15:17:24.322Z,75.05
2019-02-06T15:23:17.358Z,79.21
2019-02-06T15:34:28.688Z,71.44
2019-02-06T15:43:32.211Z,72.13
2019-02-06T15:46:32.404Z,72.86
2019-02-06T15:49:08.753Z,74.74
2019-02-06T15:58:25.216Z,79.61
2019-02-06T16:03:47.293Z,78.46
2019-02-06T16:11:55.043Z,80.38
2019-02-06T16:34:30.650Z,87.23
2019-02-06T16:42:38.280Z,87.85
2019-02-06T16:47:57.244Z,88.46
2019-02-06T16:50:38.943Z,94.01
2019-02-06T16:56:34.335Z,88.92
2019-02-06T17:02:09.141Z,89.40
2019-02-06T17:04:43.011Z,89.30
2019-02-06T17:07:28.097Z,89.45
2019-02-06T17:10:08.759Z,87.54
2019-02-06T17:12:39.502Z,91.78
2019-02-06T17:15:23.473Z,87.75
2019-02-06T17:21:51.576Z,87.36
2019-02-06T17:27:03.625Z,89.74
2019-02-06T17:29:44.091Z,88.06
2019-02-06T17:35:05.853Z,88.35
2019-02-06T17:40:58.245Z,87.12
2019-02-06T17:43:34.755Z,88.00
2019-02-06T17:48:42.441Z,87.41
2019-02-06T17:57:28.296Z,89.67
2019-02-06T18:00:09.386Z,89.89
2019-02-06T18:02:38.508Z,88.25
2019-02-06T18:05:07.579Z,88.22
2019-02-06T18:07:51.638Z,89.01
2019-02-06T18:10:27.983Z,88.19
2019-02-06T18:17:30.716Z,89.89
2019-02-06T18:20:01.558Z,89.46
2019-02-06T18:22:33.208Z,87.63
2019-02-06T18:27:45.327Z,87.36
2019-02-06T18:32:56.829Z,87.52
2019-02-06T18:35:26.942Z,87.89
2019-02-06T18:37:56.983Z,87.80
2019-02-06T18:40:30.122Z,87.74
2019-02-06T18:42:59.334Z,87.81
2019-02-06T18:45:41.763Z,87.16
2019-02-06T18:48:11.702Z,88.70
2019-02-06T18:50:42.505Z,87.54
2019-02-06T18:53:11.658Z,87.05
2019-02-06T18:55:58.925Z,88.52
2019-02-06T19:01:16.159Z,88.59
2019-02-06T19:03:46.343Z,89.98
2019-02-06T19:08:51.175Z,89.85
2019-02-06T19:11:20.256Z,88.61
2019-02-06T19:13:49.327Z,90.08
2019-02-06T19:16:20.961Z,87.65
2019-02-06T19:18:50.076Z,88.39
2019-02-06T19:21:19.133Z,87.48
2019-02-06T19:23:48.589Z,88.39
2019-02-06T19:26:17.720Z,87.66
2019-02-06T19:28:46.799Z,87.75
2019-02-06T19:33:53.035Z,87.70
2019-02-06T19:36:26.228Z,89.59
2019-02-06T19:38:55.357Z,87.52
2019-02-06T19:44:05.173Z,87.54
2019-02-06T19:49:13.556Z,87.50
2019-02-06T19:51:42.695Z,89.38
2019-02-06T19:54:12.120Z,88.49
2019-02-06T19:59:21.692Z,94.63
2019-02-06T20:01:50.872Z,96.51
2019-02-06T20:04:20.063Z,97.59
2019-02-06T20:06:56.306Z,99.43
2019-02-06T20:09:26.183Z,98.61
2019-02-06T20:11:58.119Z,94.88
2019-02-06T20:14:28.222Z,91.84
2019-02-06T20:16:58.229Z,95.49
2019-02-06T20:19:27.357Z,96.60
2019-02-06T20:21:57.954Z,91.17
2019-02-06T20:24:27.096Z,91.05
2019-02-06T20:26:56.144Z,89.78
2019-02-06T20:29:25.197Z,89.59
2019-02-06T20:34:33.328Z,89.73
2019-02-06T20:37:02.446Z,90.78
2019-02-06T20:39:33.477Z,92.31
2019-02-06T20:42:04.198Z,92.54
2019-02-06T20:44:33.291Z,89.67
2019-02-06T20:47:02.359Z,92.09
2019-02-06T20:49:31.423Z,92.86
2019-02-06T20:52:02.460Z,92.04
2019-02-06T20:54:32.632Z,92.46
2019-02-06T20:57:12.086Z,95.30
2019-02-06T20:59:32.643Z,94.13
2019-02-06T21:02:01.709Z,96.62
2019-02-06T21:04:30.804Z,94.31
2019-02-06T21:07:02.074Z,93.97
2019-02-06T21:09:32.055Z,94.90
2019-02-06T21:14:44.924Z,96.80
2019-02-06T21:17:23.684Z,99.03
2019-02-06T21:22:32.399Z,96.46
2019-02-06T21:30:26.286Z,92.57
2019-02-06T21:32:57.155Z,93.70
2019-02-06T21:38:42.976Z,95.75
2019-02-06T21:41:12.102Z,97.33
2019-02-06T21:43:48.953Z,98.92
2019-02-06T21:46:23.740Z,98.25
2019-02-06T21:51:38.076Z,97.56
2019-02-06T21:54:07.159Z,93.55
2019-02-06T21:56:43.468Z,92.37
2019-02-06T21:59:13.192Z,91.22
2019-02-06T22:01:42.383Z,93.79
2019-02-06T22:04:11.455Z,95.79
2019-02-06T22:09:29.746Z,92.99
2019-02-06T22:11:58.799Z,92.82
2019-02-06T22:14:49.053Z,94.37
2019-02-06T22:17:32.936Z,98.64
2019-02-06T22:20:02.055Z,99.38
2019-02-06T22:22:38.742Z,100.00
2019-02-06T22:25:08.803Z,100.00
2019-02-06T22:27:54.987Z,100.00
2019-02-06T22:30:43.035Z,100.00
2019-02-06T22:33:20.003Z,100.00
2019-02-06T22:38:29.416Z,100.00
2019-02-06T22:40:58.509Z,100.00
2019-02-06T22:46:08.702Z,100.00
2019-02-06T22:51:23.724Z,99.36
2019-02-06T22:53:54.777Z,99.40
2019-02-06T22:56:34.794Z,100.00
2019-02-06T22:59:03.978Z,100.00
2019-02-06T23:01:34.026Z,100.00
2019-02-06T23:04:03.115Z,100.00
2019-02-06T23:06:34.668Z,100.00
2019-02-06T23:09:05.107Z,100.00
2019-02-06T23:14:17.554Z,100.00
2019-02-06T23:16:54.214Z,100.00
2019-02-06T23:21:59.503Z,100.00
2019-02-06T23:27:08.283Z,100.00
2019-02-06T23:29:53.171Z,100.00
2019-02-06T23:32:35.241Z,100.00
2019-02-06T23:35:04.338Z,100.00
2019-02-06T23:40:27.241Z,100.00
2019-02-06T23:42:56.306Z,100.00
2019-02-06T23:48:09.199Z,100.00
2019-02-06T23:54:54.012Z,100.00
2019-02-06T23:57:24.922Z,100.00
2019-02-06T23:59:54.056Z,100.00
